createdAt,value
2022-10-04T00:01:14.618Z,4.20
2022-10-04T00:03:49.084Z,3.50
2022-10-04T00:06:23.895Z,4.10
2022-10-04T00:08:52.142Z,4.10
2022-10-04T00:11:51.377Z,4.00
2022-10-04T00:14:23.024Z,3.80
2022-10-04T00:16:49.492Z,3.70
2022-10-04T00:19:16.200Z,3.90
2022-10-04T00:21:56.326Z,4.00
2022-10-04T00:24:24.857Z,3.90
2022-10-04T00:26:51.240Z,4.40
2022-10-04T00:29:33.891Z,4.40
2022-10-04T00:32:12.702Z,3.70
2022-10-04T00:34:49.405Z,4.20
2022-10-04T00:37:19.771Z,3.90
2022-10-04T00:40:06.350Z,3.80
2022-10-04T00:42:52.806Z,3.80
2022-10-04T00:45:33.194Z,3.70
2022-10-04T00:48:11.408Z,4.40
2022-10-04T00:50:48.847Z,3.90
2022-10-04T00:53:53.838Z,4.10
2022-10-04T00:56:29.294Z,3.70
2022-10-04T00:58:57.394Z,3.90
2022-10-04T01:01:24.341Z,3.80
2022-10-04T01:03:52.646Z,4.00
2022-10-04T01:06:19.078Z,3.90
2022-10-04T01:08:48.238Z,3.60
2022-10-04T01:11:26.995Z,3.90
2022-10-04T01:14:01.730Z,3.60
2022-10-04T01:16:34.004Z,3.60
2022-10-04T01:19:22.097Z,3.80
2022-10-04T01:22:08.028Z,3.70
2022-10-04T01:24:38.875Z,3.60
2022-10-04T01:27:06.877Z,3.80
2022-10-04T01:29:33.563Z,3.40
2022-10-04T01:32:00.479Z,3.50
2022-10-04T01:34:28.665Z,3.90
2022-10-04T01:36:59.578Z,3.60
2022-10-04T01:39:27.442Z,3.70
2022-10-04T01:41:54.169Z,3.60
2022-10-04T01:44:36.992Z,3.80
2022-10-04T01:47:08.526Z,3.60
2022-10-04T01:49:36.725Z,3.30
2022-10-04T01:52:15.141Z,3.50
2022-10-04T01:54:43.819Z,3.40
2022-10-04T01:57:21.142Z,3.90
2022-10-04T01:59:54.921Z,4.10
2022-10-04T02:02:39.805Z,3.40
2022-10-04T02:05:08.386Z,4.00
2022-10-04T02:07:34.899Z,3.80
2022-10-04T02:10:05.283Z,3.50
2022-10-04T02:12:32.057Z,4.30
2022-10-04T02:15:00.026Z,4.40
2022-10-04T02:17:28.695Z,4.60
2022-10-04T02:19:55.200Z,4.30
2022-10-04T02:22:21.589Z,4.80
2022-10-04T02:24:48.773Z,4.80
2022-10-04T02:27:15.679Z,4.60
2022-10-04T02:29:42.251Z,4.50
2022-10-04T02:32:28.140Z,4.10
2022-10-04T02:34:55.099Z,4.50
2022-10-04T02:37:27.090Z,4.70
2022-10-04T02:40:03.610Z,4.30
2022-10-04T02:42:55.450Z,3.80
2022-10-04T02:45:28.545Z,4.00
2022-10-04T02:47:58.405Z,4.20
2022-10-04T02:50:35.933Z,4.00
2022-10-04T02:53:10.568Z,4.30
2022-10-04T02:55:37.718Z,4.20
2022-10-04T02:58:07.792Z,4.20
2022-10-04T03:03:40.589Z,4.30
2022-10-04T03:06:12.010Z,4.50
2022-10-04T03:08:53.395Z,4.60
2022-10-04T03:11:22.800Z,3.90
2022-10-04T03:13:51.200Z,4.60
2022-10-04T03:16:17.765Z,4.10
2022-10-04T03:18:44.651Z,4.40
2022-10-04T03:21:12.194Z,3.90
2022-10-04T03:23:38.754Z,3.90
2022-10-04T03:26:24.381Z,4.00
2022-10-04T03:28:50.869Z,3.80
2022-10-04T03:31:19.850Z,4.40
2022-10-04T03:33:46.990Z,3.30
2022-10-04T03:36:15.160Z,4.30
2022-10-04T03:38:42.442Z,4.10
2022-10-04T03:41:09.866Z,4.50
2022-10-04T03:43:38.136Z,3.80
2022-10-04T03:46:07.534Z,4.00
2022-10-04T03:48:43.892Z,3.90
2022-10-04T03:51:17.578Z,4.10
2022-10-04T03:53:58.085Z,4.30
2022-10-04T03:56:29.017Z,4.00
2022-10-04T03:58:55.606Z,4.00
2022-10-04T04:01:34.866Z,4.30
2022-10-04T04:04:02.806Z,3.80
2022-10-04T04:06:37.790Z,3.90
2022-10-04T04:09:04.291Z,4.30
2022-10-04T04:11:31.026Z,3.50
2022-10-04T04:14:00.765Z,4.00
2022-10-04T04:16:27.407Z,3.60
2022-10-04T04:18:55.162Z,3.50
2022-10-04T04:21:23.909Z,3.60
2022-10-04T04:23:54.023Z,4.00
2022-10-04T04:26:36.249Z,4.00
2022-10-04T04:29:08.989Z,4.10
2022-10-04T04:31:43.224Z,4.80
2022-10-04T04:34:21.153Z,3.50
2022-10-04T04:36:48.226Z,4.90
2022-10-04T04:39:34.692Z,6.40
2022-10-04T04:42:10.683Z,3.70
2022-10-04T04:44:47.881Z,4.10
2022-10-04T04:47:42.769Z,3.90
2022-10-04T04:50:27.527Z,4.00
2022-10-04T04:52:55.912Z,4.20
2022-10-04T04:55:49.966Z,4.00
2022-10-04T04:58:25.235Z,4.00
2022-10-04T05:01:17.069Z,3.40
2022-10-04T05:03:43.995Z,3.60
2022-10-04T05:06:31.163Z,3.70
2022-10-04T05:08:58.186Z,3.40
2022-10-04T05:11:36.007Z,3.80
2022-10-04T05:14:06.194Z,3.40
2022-10-04T05:16:39.098Z,3.50
2022-10-04T05:19:08.367Z,3.90
2022-10-04T05:21:36.865Z,3.20
2022-10-04T05:24:10.868Z,3.50
2022-10-04T05:26:37.289Z,3.70
2022-10-04T05:29:09.865Z,4.20
2022-10-04T05:31:53.813Z,4.10
2022-10-04T05:34:25.214Z,3.20
2022-10-04T05:37:01.897Z,4.10
2022-10-04T05:39:54.014Z,3.40
2022-10-04T05:42:47.501Z,3.40
2022-10-04T05:45:23.227Z,3.00
2022-10-04T05:47:51.457Z,3.80
2022-10-04T05:50:20.883Z,3.70
2022-10-04T05:52:49.687Z,3.70
2022-10-04T05:55:34.436Z,3.80
2022-10-04T05:58:25.861Z,3.80
2022-10-04T06:01:01.489Z,3.20
2022-10-04T06:03:49.314Z,3.80
2022-10-04T06:06:40.389Z,3.60
2022-10-04T06:09:07.006Z,3.50
2022-10-04T06:11:50.226Z,3.50
2022-10-04T06:14:29.278Z,3.20
2022-10-04T06:17:19.534Z,3.60
2022-10-04T06:20:23.014Z,3.50
2022-10-04T06:22:56.226Z,3.80
2022-10-04T06:25:31.845Z,4.30
2022-10-04T06:28:24.569Z,3.70
2022-10-04T06:31:22.310Z,4.00
2022-10-04T06:33:48.765Z,4.00
2022-10-04T06:36:25.001Z,3.50
2022-10-04T06:39:04.649Z,3.90
2022-10-04T06:41:49.696Z,4.00
2022-10-04T06:48:09.271Z,3.30
2022-10-04T06:50:52.932Z,3.50
2022-10-04T06:53:49.761Z,3.60
2022-10-04T06:56:56.000Z,3.30
2022-10-04T06:59:28.843Z,3.50
2022-10-04T07:01:58.811Z,3.20
2022-10-04T07:05:07.118Z,3.50
2022-10-04T07:07:36.399Z,3.50
2022-10-04T07:10:23.151Z,5.40
2022-10-04T07:13:14.009Z,3.80
2022-10-04T07:15:43.441Z,4.30
2022-10-04T07:18:18.842Z,4.30
2022-10-04T07:20:45.439Z,4.90
2022-10-04T07:23:47.507Z,3.60
2022-10-04T07:26:43.719Z,3.60
2022-10-04T07:29:23.323Z,3.90
2022-10-04T07:32:03.941Z,3.60
2022-10-04T07:34:31.751Z,3.30
2022-10-04T07:36:59.638Z,3.00
2022-10-04T07:39:45.025Z,3.50
2022-10-04T07:42:36.854Z,3.70
2022-10-04T07:45:26.824Z,3.80
2022-10-04T07:48:25.012Z,3.30
2022-10-04T07:51:16.456Z,4.30
2022-10-04T07:53:49.182Z,4.60
2022-10-04T07:56:38.826Z,3.70
2022-10-04T07:59:29.707Z,5.80
2022-10-04T08:02:04.071Z,4.30
2022-10-04T08:04:45.596Z,4.60
2022-10-04T08:07:39.682Z,3.50
2022-10-04T08:10:27.081Z,3.20
2022-10-04T08:13:02.920Z,3.10
2022-10-04T08:15:33.966Z,3.50
2022-10-04T08:18:06.672Z,3.70
2022-10-04T08:20:35.442Z,4.30
2022-10-04T08:23:40.167Z,9.40
2022-10-04T08:26:35.510Z,3.40
2022-10-04T08:29:27.007Z,4.30
2022-10-04T08:31:56.682Z,3.50
2022-10-04T08:34:55.823Z,3.10
2022-10-04T08:37:35.663Z,3.00
2022-10-04T08:40:13.474Z,3.00
2022-10-04T08:43:04.516Z,3.10
2022-10-04T08:45:39.125Z,2.50
2022-10-04T08:48:11.604Z,2.80
2022-10-04T08:51:08.987Z,2.70
2022-10-04T08:53:48.841Z,2.80
2022-10-04T08:56:32.239Z,2.80
2022-10-04T08:59:10.179Z,2.50
2022-10-04T09:02:01.085Z,2.80
2022-10-04T09:04:53.068Z,2.70
2022-10-04T09:07:41.647Z,2.80
2022-10-04T09:10:37.195Z,3.50
2022-10-04T09:13:06.690Z,5.50
2022-10-04T09:15:56.645Z,5.10
2022-10-04T09:18:35.831Z,3.90
2022-10-04T09:21:10.685Z,3.50
2022-10-04T09:24:06.603Z,3.60
2022-10-04T09:26:47.560Z,3.40
2022-10-04T09:29:32.259Z,5.70
2022-10-04T09:32:11.162Z,6.40
2022-10-04T09:35:12.050Z,3.60
2022-10-04T09:38:15.327Z,4.60
2022-10-04T09:40:55.331Z,3.90
2022-10-04T09:43:54.519Z,3.40
2022-10-04T09:46:30.546Z,6.00
2022-10-04T09:49:18.993Z,5.60
2022-10-04T09:52:15.788Z,5.20
2022-10-04T09:55:04.139Z,3.00
2022-10-04T09:58:08.454Z,3.00
2022-10-04T10:00:57.282Z,4.10
2022-10-04T10:03:48.442Z,3.50
2022-10-04T10:06:20.926Z,4.90
2022-10-04T10:08:49.632Z,5.10
2022-10-04T10:12:12.403Z,4.00
2022-10-04T10:14:49.687Z,3.60
2022-10-04T10:17:37.998Z,3.10
2022-10-04T10:20:16.913Z,2.30
2022-10-04T10:23:03.016Z,2.40
2022-10-04T10:25:46.373Z,2.70
2022-10-04T10:28:29.186Z,2.70
2022-10-04T10:31:26.026Z,2.90
2022-10-04T10:34:21.081Z,2.20
2022-10-04T10:37:06.448Z,2.30
2022-10-04T10:39:42.567Z,2.10
2022-10-04T10:42:21.690Z,2.20
2022-10-04T10:45:09.273Z,2.40
2022-10-04T10:47:36.074Z,2.90
2022-10-04T10:50:58.570Z,2.40
2022-10-04T10:53:43.342Z,2.20
2022-10-04T10:56:47.801Z,6.00
2022-10-04T10:59:42.896Z,2.30
2022-10-04T11:02:48.052Z,2.40
2022-10-04T11:05:47.562Z,4.80
2022-10-04T11:08:51.130Z,4.60
2022-10-04T11:11:36.479Z,2.30
2022-10-04T11:14:19.960Z,2.40
2022-10-04T11:16:51.811Z,2.20
2022-10-04T11:19:35.237Z,2.50
2022-10-04T11:22:33.657Z,2.10
2022-10-04T11:25:12.660Z,1.90
2022-10-04T11:28:04.618Z,3.10
2022-10-04T11:31:01.705Z,2.30
2022-10-04T11:34:00.762Z,5.20
2022-10-04T11:36:52.016Z,3.10
2022-10-04T11:39:44.872Z,2.40
2022-10-04T11:42:53.856Z,2.00
2022-10-04T11:45:24.075Z,2.10
2022-10-04T11:47:59.643Z,2.20
2022-10-04T11:51:07.684Z,1.90
2022-10-04T11:53:52.926Z,1.90
2022-10-04T11:57:10.600Z,1.90
2022-10-04T11:59:41.450Z,1.70
2022-10-04T12:02:16.555Z,1.80
2022-10-04T12:04:49.748Z,2.00
2022-10-04T12:07:27.630Z,2.40
2022-10-04T12:10:03.131Z,2.00
2022-10-04T12:12:48.343Z,2.10
2022-10-04T12:15:28.095Z,2.50
2022-10-04T12:18:05.507Z,2.70
2022-10-04T12:20:35.653Z,2.40
2022-10-04T12:23:08.519Z,2.70
2022-10-04T12:25:42.503Z,2.70
2022-10-04T12:28:24.358Z,2.20
2022-10-04T12:31:26.683Z,2.00
2022-10-04T12:34:01.204Z,2.10
2022-10-04T12:36:34.150Z,2.00
2022-10-04T12:39:08.338Z,2.20
2022-10-04T12:41:45.938Z,2.30
2022-10-04T12:44:25.782Z,2.10
2022-10-04T12:47:00.637Z,2.20
2022-10-04T12:49:32.197Z,2.10
2022-10-04T12:52:20.230Z,2.00
2022-10-04T12:54:57.628Z,2.00
2022-10-04T12:58:15.624Z,1.80
2022-10-04T13:00:43.697Z,1.80
2022-10-04T13:03:26.506Z,4.00
2022-10-04T13:06:03.065Z,2.70
2022-10-04T13:08:45.748Z,2.40
2022-10-04T13:11:27.395Z,2.10
2022-10-04T13:14:11.891Z,2.30
2022-10-04T13:20:18.627Z,2.10
2022-10-04T13:22:57.457Z,2.00
2022-10-04T13:25:45.210Z,1.90
2022-10-04T13:28:40.030Z,2.20
2022-10-04T13:31:24.119Z,4.10
2022-10-04T13:34:00.691Z,3.50
2022-10-04T13:36:42.129Z,6.70
2022-10-04T13:39:15.211Z,5.30
2022-10-04T13:41:48.306Z,6.40
2022-10-04T13:47:08.544Z,8.90
2022-10-04T13:50:02.268Z,4.50
2022-10-04T13:53:03.019Z,6.90
2022-10-04T13:55:57.828Z,3.80
2022-10-04T13:59:02.523Z,5.30
2022-10-04T14:01:38.108Z,8.30
2022-10-04T14:04:20.441Z,3.20
2022-10-04T14:07:14.529Z,2.50
2022-10-04T14:10:01.686Z,2.40
2022-10-04T14:12:47.195Z,3.30
2022-10-04T14:15:59.015Z,3.00
2022-10-04T14:18:43.097Z,4.20
2022-10-04T14:21:32.237Z,2.20
2022-10-04T14:24:17.343Z,2.80
2022-10-04T14:27:11.915Z,5.10
2022-10-04T14:30:08.161Z,4.20
2022-10-04T14:33:01.989Z,5.40
2022-10-04T14:38:29.297Z,2.10
2022-10-04T14:41:22.335Z,2.20
2022-10-04T14:44:26.803Z,2.10
2022-10-04T14:47:18.936Z,3.70
2022-10-04T14:50:00.324Z,3.30
2022-10-04T14:52:39.504Z,4.60
2022-10-04T14:55:43.610Z,3.70
2022-10-04T14:58:22.318Z,4.60
2022-10-04T15:01:04.311Z,3.40
2022-10-04T15:03:48.368Z,3.00
2022-10-04T15:06:24.167Z,2.90
2022-10-04T15:09:07.161Z,14.00
2022-10-04T15:11:42.913Z,4.90
2022-10-04T15:14:35.834Z,4.70
2022-10-04T15:17:05.560Z,10.80
2022-10-04T15:20:06.144Z,13.00
2022-10-04T15:22:43.788Z,11.60
2022-10-04T15:25:42.242Z,9.60
2022-10-04T15:28:34.131Z,8.50
2022-10-04T15:31:16.731Z,4.10
2022-10-04T15:34:03.264Z,3.50
2022-10-04T15:37:01.863Z,4.00
2022-10-04T15:39:43.909Z,4.60
2022-10-04T15:42:15.106Z,3.90
2022-10-04T15:45:10.049Z,7.20
2022-10-04T15:48:23.203Z,4.60
2022-10-04T15:51:03.821Z,4.60
2022-10-04T15:54:04.879Z,5.60
2022-10-04T15:56:48.819Z,22.70
2022-10-04T15:59:34.079Z,30.70
2022-10-04T16:02:25.662Z,17.80
2022-10-04T16:05:06.337Z,8.30
2022-10-04T16:08:26.570Z,13.50
2022-10-04T16:11:24.190Z,19.50
2022-10-04T16:14:26.007Z,9.90
2022-10-04T16:16:59.956Z,9.10
2022-10-04T16:19:41.307Z,10.40
2022-10-04T16:22:17.802Z,8.80
2022-10-04T16:24:50.711Z,7.50
2022-10-04T16:27:49.585Z,7.80
2022-10-04T16:30:27.904Z,8.40
2022-10-04T16:33:13.436Z,8.70
2022-10-04T16:35:45.889Z,8.40
2022-10-04T16:38:12.398Z,8.00
2022-10-04T16:40:47.611Z,12.20
2022-10-04T16:43:17.248Z,11.20
2022-10-04T16:46:02.862Z,11.80
2022-10-04T16:48:34.702Z,14.30
2022-10-04T16:51:16.704Z,12.80
2022-10-04T16:54:04.865Z,21.10
2022-10-04T16:56:42.637Z,12.40
2022-10-04T16:59:13.179Z,19.90
2022-10-04T17:02:06.350Z,12.40
2022-10-04T17:04:47.538Z,14.40
2022-10-04T17:07:37.417Z,13.40
2022-10-04T17:10:21.291Z,17.60
2022-10-04T17:13:25.818Z,14.70
2022-10-04T17:16:15.508Z,16.70
2022-10-04T17:19:14.801Z,17.10
2022-10-04T17:21:48.373Z,15.50
2022-10-04T17:27:13.869Z,21.60
2022-10-04T17:30:04.056Z,20.00
2022-10-04T17:32:53.142Z,19.50
2022-10-04T17:35:55.247Z,41.10
2022-10-04T17:38:36.369Z,43.30
2022-10-04T17:41:21.008Z,111.00
2022-10-04T17:44:23.035Z,54.40
2022-10-04T17:46:50.977Z,41.80
2022-10-04T17:50:00.884Z,31.20
2022-10-04T17:52:52.571Z,24.00
2022-10-04T17:55:23.309Z,29.40
2022-10-04T17:57:55.848Z,23.20
2022-10-04T18:00:23.964Z,22.10
2022-10-04T18:02:59.946Z,25.40
2022-10-04T18:05:36.319Z,52.20
2022-10-04T18:08:23.445Z,37.70
2022-10-04T18:10:57.980Z,27.20
2022-10-04T18:13:32.021Z,56.10
2022-10-04T18:16:08.393Z,33.10
2022-10-04T18:18:40.067Z,26.50
2022-10-04T18:21:20.219Z,31.80
2022-10-04T18:23:54.129Z,23.20
2022-10-04T18:26:21.067Z,26.40
2022-10-04T18:28:48.820Z,26.70
2022-10-04T18:31:37.081Z,34.60
2022-10-04T18:34:26.548Z,38.90
2022-10-04T18:37:22.991Z,54.20
2022-10-04T18:39:54.605Z,56.90
2022-10-04T18:42:29.165Z,74.70
2022-10-04T18:45:00.291Z,54.40
2022-10-04T18:47:39.298Z,57.90
2022-10-04T18:50:16.550Z,69.20
2022-10-04T18:53:03.393Z,60.60
2022-10-04T18:55:39.320Z,51.10
2022-10-04T18:58:41.199Z,49.50
2022-10-04T19:01:41.838Z,50.80
2022-10-04T19:04:14.075Z,49.30
2022-10-04T19:06:40.553Z,57.40
2022-10-04T19:09:17.026Z,49.20
2022-10-04T19:11:52.148Z,50.70
2022-10-04T19:14:43.673Z,52.10
2022-10-04T19:17:25.493Z,51.20
2022-10-04T19:20:08.391Z,52.00
2022-10-04T19:22:49.798Z,47.20
2022-10-04T19:25:24.701Z,42.20
2022-10-04T19:28:15.511Z,45.40
2022-10-04T19:30:48.928Z,45.50
2022-10-04T19:33:42.211Z,51.80
2022-10-04T19:36:46.962Z,48.30
2022-10-04T19:39:26.782Z,49.40
2022-10-04T19:42:05.331Z,49.90
2022-10-04T19:44:56.170Z,47.80
2022-10-04T19:47:34.299Z,52.50
2022-10-04T19:50:03.307Z,54.10
2022-10-04T19:52:53.941Z,62.30
2022-10-04T19:55:43.962Z,67.80
2022-10-04T19:58:19.747Z,65.60
2022-10-04T20:00:46.689Z,64.80
2022-10-04T20:03:13.310Z,73.80
2022-10-04T20:05:50.645Z,77.10
2022-10-04T20:09:00.891Z,68.10
2022-10-04T20:11:48.984Z,72.40
2022-10-04T20:14:16.872Z,71.80
2022-10-04T20:16:46.639Z,95.50
2022-10-04T20:19:16.003Z,90.50
2022-10-04T20:21:42.948Z,78.30
2022-10-04T20:24:39.641Z,76.40
2022-10-04T20:27:36.406Z,75.60
2022-10-04T20:30:13.265Z,75.30
2022-10-04T20:32:39.812Z,79.00
2022-10-04T20:35:09.834Z,81.80
2022-10-04T20:38:19.926Z,73.50
2022-10-04T20:40:45.390Z,75.20
2022-10-04T20:43:14.780Z,75.60
2022-10-04T20:45:44.596Z,102.10
2022-10-04T20:48:12.653Z,79.20
2022-10-04T20:50:39.898Z,78.40
2022-10-04T20:53:14.942Z,69.10
2022-10-04T20:55:41.883Z,64.00
2022-10-04T20:58:35.528Z,83.70
2022-10-04T21:01:35.646Z,81.50
2022-10-04T21:04:41.373Z,82.00
2022-10-04T21:07:11.578Z,76.20
2022-10-04T21:09:38.782Z,76.70
2022-10-04T21:12:06.078Z,72.30
2022-10-04T21:14:37.062Z,74.50
2022-10-04T21:17:04.940Z,69.90
2022-10-04T21:19:38.986Z,69.40
2022-10-04T21:22:06.390Z,66.20
2022-10-04T21:24:48.490Z,66.20
2022-10-04T21:27:37.852Z,62.70
2022-10-04T21:30:14.828Z,63.20
2022-10-04T21:32:41.412Z,60.40
2022-10-04T21:35:08.471Z,60.80
2022-10-04T21:37:35.175Z,60.00
2022-10-04T21:40:02.141Z,60.50
2022-10-04T21:42:31.861Z,59.70
2022-10-04T21:44:58.696Z,54.00
2022-10-04T21:47:25.253Z,60.30
2022-10-04T21:49:52.276Z,62.20
2022-10-04T21:52:19.018Z,62.10
2022-10-04T21:54:46.034Z,72.60
2022-10-04T21:57:13.058Z,60.90
2022-10-04T21:59:39.962Z,56.20
2022-10-04T22:02:07.946Z,54.80
2022-10-04T22:04:34.751Z,60.90
2022-10-04T22:07:01.745Z,64.00
2022-10-04T22:09:29.279Z,65.70
2022-10-04T22:11:55.906Z,62.80
2022-10-04T22:14:22.496Z,64.60
2022-10-04T22:16:49.660Z,69.00
2022-10-04T22:19:16.751Z,62.70
2022-10-04T22:21:43.679Z,62.90
2022-10-04T22:24:16.668Z,64.60
2022-10-04T22:26:43.321Z,60.80
2022-10-04T22:29:13.734Z,58.00
2022-10-04T22:31:44.014Z,60.20
2022-10-04T22:34:19.636Z,57.90
2022-10-04T22:36:46.449Z,55.50
2022-10-04T22:39:17.557Z,53.90
2022-10-04T22:41:45.070Z,52.50
2022-10-04T22:44:16.652Z,50.10
2022-10-04T22:46:45.327Z,48.60
2022-10-04T22:49:13.732Z,49.20
2022-10-04T22:51:40.985Z,49.60
2022-10-04T22:54:21.710Z,49.70
2022-10-04T22:56:48.505Z,52.70
2022-10-04T22:59:17.082Z,46.20
2022-10-04T23:01:44.261Z,48.10
2022-10-04T23:04:29.588Z,52.40
2022-10-04T23:06:56.719Z,53.90
2022-10-04T23:09:23.184Z,51.20
2022-10-04T23:11:49.745Z,59.80
2022-10-04T23:14:16.598Z,48.70
2022-10-04T23:16:44.740Z,38.00
2022-10-04T23:19:20.957Z,39.50
2022-10-04T23:21:49.879Z,39.50
2022-10-04T23:24:17.697Z,39.00
2022-10-04T23:26:49.519Z,39.90
2022-10-04T23:29:18.738Z,51.90
2022-10-04T23:31:46.622Z,44.80
2022-10-04T23:34:18.583Z,42.90
2022-10-04T23:36:46.102Z,42.40
2022-10-04T23:39:25.973Z,44.40
2022-10-04T23:41:54.074Z,43.00
2022-10-04T23:44:25.494Z,40.10
2022-10-04T23:46:52.594Z,40.90
2022-10-04T23:49:19.096Z,44.00
2022-10-04T23:51:45.705Z,40.00
2022-10-04T23:54:16.085Z,38.60
2022-10-04T23:56:43.048Z,35.70
2022-10-04T23:59:14.942Z,36.00
